Schaupps, Nebraska
Current Conditions -  °F | °C
As of 7:53 PM on Monday 24 Nov 2014 (Local Time) from KODX Reporting Station
Clear Clear  
Wind Chill: -11°   Ceiling: Unl
Heat Index: -6°   Visibility: 10mi
Dew Point: -13°   Wind: 8mph
Humidity: 57%   Direction: 330°NNW
Pressure: 30.05"   Gusts: NA
Location:  41.3°N, 98.8143°W
Report Text: KODX 250153Z AUTO 33007KT 10SM CLR M06/M13 A3005 RMK AO2 SLP207 T10611133
Loading
Personal Weather Stations






























Interactive Weather Map New forecast layout! Learn more

10-Day Weather Forecast

Advertisements
Track Severe Weather on mobile